createdAt,value
2023-07-01T00:02:38.332Z,28.62
2023-07-01T00:05:21.998Z,28.27
2023-07-01T00:08:09.291Z,28.36
2023-07-01T00:10:52.450Z,28.16
2023-07-01T00:13:35.115Z,27.99
2023-07-01T00:16:19.596Z,27.52
2023-07-01T00:18:57.576Z,27.50
2023-07-01T00:21:38.370Z,27.84
2023-07-01T00:24:27.248Z,27.90
2023-07-01T00:27:18.461Z,27.58
2023-07-01T00:30:04.359Z,27.19
2023-07-01T00:32:51.281Z,27.96
2023-07-01T00:35:27.279Z,28.00
2023-07-01T00:38:18.146Z,27.95
2023-07-01T00:41:06.080Z,27.64
2023-07-01T00:43:52.742Z,27.84
2023-07-01T00:46:35.663Z,27.32
2023-07-01T00:52:11.954Z,27.41
2023-07-01T00:55:06.197Z,27.45
2023-07-01T00:57:55.346Z,27.70
2023-07-01T01:00:38.987Z,27.76
2023-07-01T01:03:43.636Z,27.89
2023-07-01T01:06:39.201Z,27.65
2023-07-01T01:09:41.494Z,28.00
2023-07-01T01:12:25.580Z,27.98
2023-07-01T01:15:08.014Z,27.87
2023-07-01T01:17:53.522Z,27.88
2023-07-01T01:20:34.500Z,27.74
2023-07-01T01:23:29.832Z,27.79
2023-07-01T01:26:17.284Z,27.35
2023-07-01T01:29:01.967Z,27.47
2023-07-01T01:31:40.427Z,26.70
2023-07-01T01:34:23.974Z,26.69
2023-07-01T01:37:06.621Z,26.81
2023-07-01T01:39:48.777Z,26.71
2023-07-01T01:42:59.512Z,26.65
2023-07-01T01:45:40.696Z,25.92
2023-07-01T01:48:19.309Z,26.08
2023-07-01T01:51:00.099Z,26.13
2023-07-01T01:53:42.885Z,25.87
2023-07-01T01:56:22.223Z,25.76
2023-07-01T01:58:59.882Z,25.69
2023-07-01T02:01:38.325Z,25.84
2023-07-01T02:04:18.914Z,26.19
2023-07-01T02:07:01.009Z,26.39
2023-07-01T02:09:39.338Z,26.82
2023-07-01T02:12:39.417Z,26.89
2023-07-01T02:18:17.939Z,26.33
2023-07-01T02:20:59.878Z,26.46
2023-07-01T02:23:40.635Z,26.41
2023-07-01T02:26:23.085Z,26.35
2023-07-01T02:29:03.044Z,26.45
2023-07-01T02:31:52.607Z,26.82
2023-07-01T02:34:37.130Z,26.83
2023-07-01T02:37:20.616Z,26.55
2023-07-01T02:39:55.967Z,26.55
2023-07-01T02:42:38.412Z,26.44
2023-07-01T02:45:19.432Z,26.39
2023-07-01T02:48:04.842Z,26.12
2023-07-01T02:50:47.045Z,26.02
2023-07-01T02:53:23.067Z,26.11
2023-07-01T02:56:09.052Z,26.07
2023-07-01T02:58:54.327Z,25.61
2023-07-01T03:01:37.483Z,26.02
2023-07-01T03:04:21.550Z,25.32
2023-07-01T03:07:09.951Z,25.50
2023-07-01T03:10:06.665Z,25.80
2023-07-01T03:12:49.815Z,25.63
2023-07-01T03:15:33.769Z,25.69
2023-07-01T03:18:17.954Z,25.94
2023-07-01T03:21:02.182Z,25.64
2023-07-01T03:23:45.885Z,25.38
2023-07-01T03:26:33.996Z,25.37
2023-07-01T03:29:13.083Z,25.58
2023-07-01T03:31:58.125Z,25.68
2023-07-01T03:34:42.352Z,25.64
2023-07-01T03:37:30.597Z,25.81
2023-07-01T03:40:14.907Z,25.59
2023-07-01T03:43:04.114Z,25.73
2023-07-01T03:45:47.307Z,26.08
2023-07-01T03:48:31.113Z,26.08
2023-07-01T03:51:09.192Z,25.92
2023-07-01T03:53:52.908Z,26.16
2023-07-01T03:56:34.275Z,26.35
2023-07-01T03:59:10.889Z,26.07
2023-07-01T04:02:04.987Z,26.63
2023-07-01T04:04:49.328Z,26.53
2023-07-01T04:07:36.889Z,26.66
2023-07-01T04:10:19.139Z,27.06
2023-07-01T04:12:59.566Z,26.87
2023-07-01T04:15:41.176Z,26.76
2023-07-01T04:18:30.073Z,27.34
2023-07-01T04:21:07.878Z,27.67
2023-07-01T04:23:55.403Z,27.61
2023-07-01T04:26:45.277Z,28.00
2023-07-01T04:29:28.166Z,28.27
2023-07-01T04:32:12.872Z,28.26
2023-07-01T04:34:58.752Z,28.59
2023-07-01T04:37:35.309Z,28.74
2023-07-01T04:40:17.934Z,28.81
2023-07-01T04:43:05.113Z,29.31
2023-07-01T04:45:51.522Z,29.98
2023-07-01T04:48:27.837Z,29.97
2023-07-01T04:51:20.376Z,30.28
2023-07-01T04:53:58.795Z,30.60
2023-07-01T04:56:39.720Z,31.08
2023-07-01T04:59:25.751Z,31.42
2023-07-01T05:02:09.440Z,31.00
2023-07-01T05:04:52.917Z,31.41
2023-07-01T05:07:34.923Z,31.14
2023-07-01T05:10:13.812Z,31.45
2023-07-01T05:13:06.376Z,31.85
2023-07-01T05:15:50.573Z,32.18
2023-07-01T05:18:32.348Z,32.25
2023-07-01T05:21:26.652Z,32.72
2023-07-01T05:24:13.542Z,33.36
2023-07-01T05:26:54.823Z,33.06
2023-07-01T05:29:35.050Z,33.28
2023-07-01T05:32:16.709Z,34.21
2023-07-01T05:35:02.479Z,34.71
2023-07-01T05:37:48.409Z,35.10
2023-07-01T05:40:29.584Z,34.83
2023-07-01T05:43:07.587Z,34.79
2023-07-01T05:48:42.407Z,35.69
2023-07-01T05:51:23.884Z,36.07
2023-07-01T05:54:04.852Z,36.46
2023-07-01T05:56:49.688Z,37.12
2023-07-01T05:59:30.656Z,36.97
2023-07-01T06:02:06.039Z,36.95
2023-07-01T06:05:03.753Z,37.72
2023-07-01T06:07:42.342Z,37.30
2023-07-01T06:10:25.598Z,37.18
2023-07-01T06:13:09.758Z,37.14
2023-07-01T06:15:50.825Z,37.29
2023-07-01T06:18:38.443Z,37.37
2023-07-01T06:21:18.045Z,37.60
2023-07-01T06:23:59.321Z,38.40
2023-07-01T06:26:42.352Z,38.91
2023-07-01T06:29:24.657Z,39.12
2023-07-01T06:32:07.942Z,38.77
2023-07-01T06:34:56.251Z,38.57
2023-07-01T06:37:42.613Z,38.55
2023-07-01T06:40:31.752Z,39.38
2023-07-01T06:43:27.219Z,39.04
2023-07-01T06:46:14.732Z,39.35
2023-07-01T06:48:50.931Z,39.40
2023-07-01T06:51:35.261Z,40.03
2023-07-01T06:54:20.629Z,40.20
2023-07-01T06:57:09.490Z,39.88
2023-07-01T06:59:53.609Z,40.09
2023-07-01T07:02:30.737Z,40.36
2023-07-01T07:05:24.826Z,40.85
2023-07-01T07:08:05.421Z,41.06
2023-07-01T07:10:50.332Z,40.28
2023-07-01T07:13:43.418Z,40.37
2023-07-01T07:16:39.015Z,40.57
2023-07-01T07:19:20.709Z,40.88
2023-07-01T07:22:00.097Z,40.83
2023-07-01T07:24:44.889Z,41.04
2023-07-01T07:27:26.358Z,40.81
2023-07-01T07:33:10.707Z,40.84
2023-07-01T07:35:52.027Z,40.90
2023-07-01T07:38:33.190Z,41.11
2023-07-01T07:41:14.710Z,41.03
2023-07-01T07:44:04.484Z,41.12
2023-07-01T07:46:49.867Z,41.30
2023-07-01T07:49:33.202Z,41.38
2023-07-01T07:52:14.113Z,41.51
2023-07-01T07:54:55.053Z,41.46
2023-07-01T07:57:36.142Z,42.37
2023-07-01T08:00:20.485Z,41.67
2023-07-01T08:03:04.947Z,42.69
2023-07-01T08:05:42.918Z,42.70
2023-07-01T08:08:26.868Z,42.89
2023-07-01T08:11:21.269Z,42.18
2023-07-01T08:14:11.822Z,41.99
2023-07-01T08:16:58.106Z,42.41
2023-07-01T08:19:37.787Z,42.75
2023-07-01T08:22:22.497Z,41.76
2023-07-01T08:25:03.422Z,41.88
2023-07-01T08:27:45.057Z,43.21
2023-07-01T08:30:36.125Z,42.43
2023-07-01T08:33:14.672Z,42.41
2023-07-01T08:36:14.735Z,43.02
2023-07-01T08:38:53.279Z,42.99
2023-07-01T08:41:30.049Z,42.77
2023-07-01T08:44:14.489Z,42.65
2023-07-01T08:46:58.124Z,43.39
2023-07-01T08:49:44.406Z,42.91
2023-07-01T08:52:27.380Z,43.54
2023-07-01T08:55:13.790Z,44.15
2023-07-01T08:57:55.756Z,43.31
2023-07-01T09:00:43.055Z,43.79
2023-07-01T09:03:24.987Z,44.27
2023-07-01T09:06:23.486Z,44.14
2023-07-01T09:09:03.050Z,43.16
2023-07-01T09:11:44.478Z,43.74
2023-07-01T09:14:24.877Z,44.20
2023-07-01T09:17:12.435Z,43.22
2023-07-01T09:20:09.943Z,43.45
2023-07-01T09:23:00.016Z,43.84
2023-07-01T09:25:41.251Z,43.27
2023-07-01T09:28:33.706Z,43.78
2023-07-01T09:31:13.195Z,44.37
2023-07-01T09:34:12.742Z,44.35
2023-07-01T09:37:00.671Z,43.77
2023-07-01T09:39:48.038Z,44.16
2023-07-01T09:42:29.047Z,44.47
2023-07-01T09:45:16.560Z,44.07
2023-07-01T09:48:01.050Z,44.57
2023-07-01T09:50:50.610Z,44.24
2023-07-01T09:53:36.884Z,43.51
2023-07-01T09:56:18.263Z,43.54
2023-07-01T09:59:00.602Z,42.70
2023-07-01T10:01:40.066Z,43.55
2023-07-01T10:04:18.418Z,44.50
2023-07-01T10:13:23.909Z,45.36
2023-07-01T10:16:03.887Z,45.57
2023-07-01T10:18:48.400Z,45.16
2023-07-01T10:21:31.203Z,45.29
2023-07-01T10:24:12.114Z,45.15
2023-07-01T10:26:56.175Z,44.54
2023-07-01T10:30:09.501Z,44.46
2023-07-01T10:32:55.924Z,45.04
2023-07-01T10:35:52.108Z,44.66
2023-07-01T10:38:46.013Z,45.31
2023-07-01T10:41:54.975Z,45.11
2023-07-01T10:44:33.378Z,44.59
2023-07-01T10:47:24.675Z,43.68
2023-07-01T10:50:09.123Z,44.89
2023-07-01T10:53:05.325Z,44.79
2023-07-01T10:56:03.047Z,45.35
2023-07-01T10:58:45.298Z,45.17
2023-07-01T11:01:48.887Z,45.19
2023-07-01T11:04:49.464Z,45.33
2023-07-01T11:07:38.043Z,45.43
2023-07-01T11:10:19.046Z,45.18
2023-07-01T11:13:11.398Z,44.55
2023-07-01T11:16:10.082Z,43.72
2023-07-01T11:18:55.538Z,44.46
2023-07-01T11:21:36.387Z,44.53
2023-07-01T11:24:16.588Z,44.99
2023-07-01T11:27:07.697Z,44.60
2023-07-01T11:29:49.421Z,44.93
2023-07-01T11:32:30.230Z,44.88
2023-07-01T11:35:17.539Z,44.31
2023-07-01T11:37:58.473Z,44.15
2023-07-01T11:40:49.315Z,44.59
2023-07-01T11:43:28.686Z,44.93
2023-07-01T11:46:34.128Z,44.17
2023-07-01T11:49:28.205Z,44.74
2023-07-01T11:52:22.727Z,44.29
2023-07-01T11:55:04.255Z,45.12
2023-07-01T12:00:47.900Z,44.40
2023-07-01T12:03:28.259Z,44.06
2023-07-01T12:06:24.756Z,44.59
2023-07-01T12:09:12.120Z,45.40
2023-07-01T12:12:23.430Z,44.92
2023-07-01T12:15:07.372Z,43.44
2023-07-01T12:17:48.722Z,43.69
2023-07-01T12:20:32.278Z,43.35
2023-07-01T12:23:36.388Z,44.04
2023-07-01T12:26:25.446Z,43.64
2023-07-01T12:29:00.988Z,44.04
2023-07-01T12:31:47.223Z,43.68
2023-07-01T12:34:26.285Z,43.18
2023-07-01T12:37:18.462Z,43.04
2023-07-01T12:40:06.572Z,42.83
2023-07-01T12:42:52.617Z,43.91
2023-07-01T12:45:34.305Z,45.01
2023-07-01T12:48:26.210Z,45.57
2023-07-01T12:51:06.632Z,45.02
2023-07-01T12:53:46.252Z,44.31
2023-07-01T12:56:26.480Z,45.00
2023-07-01T12:59:23.044Z,44.82
2023-07-01T13:02:10.380Z,45.89
2023-07-01T13:04:45.762Z,46.39
2023-07-01T13:07:35.464Z,45.98
2023-07-01T13:10:14.808Z,46.07
2023-07-01T13:13:00.192Z,46.33
2023-07-01T13:15:48.780Z,46.45
2023-07-01T13:18:32.174Z,46.86
2023-07-01T13:21:09.997Z,46.16
2023-07-01T13:23:57.837Z,46.16
2023-07-01T13:26:49.643Z,46.43
2023-07-01T13:29:33.214Z,47.00
2023-07-01T13:32:12.444Z,47.31
2023-07-01T13:34:57.385Z,47.22
2023-07-01T13:37:38.348Z,47.12
2023-07-01T13:40:28.379Z,46.99
2023-07-01T13:43:07.277Z,46.85
2023-07-01T13:45:49.403Z,46.49
2023-07-01T13:48:39.700Z,45.60
2023-07-01T13:51:23.785Z,44.75
2023-07-01T13:54:21.527Z,43.34
2023-07-01T13:57:03.747Z,44.68
2023-07-01T13:59:47.603Z,45.70
2023-07-01T14:02:26.050Z,44.82
2023-07-01T14:05:16.447Z,45.08
2023-07-01T14:08:01.672Z,44.56
2023-07-01T14:10:46.320Z,44.83
2023-07-01T14:13:31.385Z,43.50
2023-07-01T14:16:21.164Z,44.57
2023-07-01T14:19:08.492Z,44.48
2023-07-01T14:21:50.401Z,45.91
2023-07-01T14:24:28.101Z,46.23
2023-07-01T14:27:16.836Z,46.61
2023-07-01T14:33:03.122Z,46.08
2023-07-01T14:35:47.461Z,45.87
2023-07-01T14:38:30.441Z,45.74
2023-07-01T14:41:02.270Z,45.23
2023-07-01T14:46:58.685Z,44.66
2023-07-01T14:49:37.137Z,44.17
2023-07-01T14:52:31.722Z,43.49
2023-07-01T14:55:17.412Z,43.63
2023-07-01T14:57:52.273Z,42.95
2023-07-01T15:00:30.762Z,42.16
2023-07-01T15:03:15.971Z,41.80
2023-07-01T15:05:53.171Z,42.79
2023-07-01T15:08:28.596Z,42.30
2023-07-01T15:11:12.789Z,42.67
2023-07-01T15:13:48.251Z,41.38
2023-07-01T15:16:24.260Z,41.51
2023-07-01T15:18:56.511Z,40.83
2023-07-01T15:21:44.108Z,41.81
2023-07-01T15:24:16.842Z,42.24
2023-07-01T15:26:52.322Z,41.60
2023-07-01T15:29:32.517Z,41.50
2023-07-01T15:32:11.869Z,41.76
2023-07-01T15:34:52.429Z,41.55
2023-07-01T15:37:34.690Z,41.85
2023-07-01T15:40:12.880Z,41.42
2023-07-01T15:42:48.746Z,41.31
2023-07-01T15:45:32.085Z,41.01
2023-07-01T15:48:17.452Z,41.08
2023-07-01T15:50:50.443Z,40.97
2023-07-01T15:53:43.227Z,41.12
2023-07-01T15:56:20.013Z,40.95
2023-07-01T15:58:52.621Z,40.53
2023-07-01T16:01:32.071Z,40.68
2023-07-01T16:04:16.766Z,40.89
2023-07-01T16:07:01.885Z,40.51
2023-07-01T16:09:51.051Z,40.54
2023-07-01T16:12:47.284Z,40.21
2023-07-01T16:15:26.430Z,40.31
2023-07-01T16:18:30.419Z,40.27
2023-07-01T16:21:13.819Z,39.85
2023-07-01T16:24:10.319Z,40.06
2023-07-01T16:26:43.490Z,39.70
2023-07-01T16:29:16.621Z,40.13
2023-07-01T16:31:51.377Z,40.12
2023-07-01T16:34:32.649Z,39.96
2023-07-01T16:37:08.214Z,39.76
2023-07-01T16:39:52.977Z,40.22
2023-07-01T16:42:40.144Z,39.88
2023-07-01T16:45:39.334Z,39.87
2023-07-01T16:48:27.475Z,39.83
2023-07-01T16:51:09.225Z,39.89
2023-07-01T16:53:55.050Z,39.71
2023-07-01T16:56:51.250Z,39.94
2023-07-01T16:59:47.931Z,40.13
2023-07-01T17:02:36.074Z,40.02
2023-07-01T17:05:15.423Z,39.75
2023-07-01T17:07:50.936Z,38.96
2023-07-01T17:10:37.637Z,39.05
2023-07-01T17:13:37.730Z,39.22
2023-07-01T17:16:16.046Z,39.30
2023-07-01T17:18:57.633Z,39.32
2023-07-01T17:21:45.932Z,39.38
2023-07-01T17:24:27.866Z,38.97
2023-07-01T17:27:12.710Z,38.78
2023-07-01T17:29:51.812Z,38.84
2023-07-01T17:32:42.635Z,38.84
2023-07-01T17:35:18.584Z,39.02
2023-07-01T17:38:02.084Z,38.91
2023-07-01T17:40:37.622Z,38.77
2023-07-01T17:43:24.614Z,38.77
2023-07-01T17:46:02.034Z,38.97
2023-07-01T17:48:46.602Z,38.71
2023-07-01T17:51:30.235Z,38.33
2023-07-01T17:54:11.982Z,38.30
2023-07-01T17:56:54.335Z,38.14
2023-07-01T17:59:33.325Z,38.14
2023-07-01T18:02:17.419Z,37.48
2023-07-01T18:05:03.492Z,37.40
2023-07-01T18:07:45.662Z,37.30
2023-07-01T18:10:30.047Z,37.22
2023-07-01T18:13:08.251Z,36.84
2023-07-01T18:15:49.698Z,37.31
2023-07-01T18:18:22.608Z,36.63
2023-07-01T18:21:05.130Z,36.57
2023-07-01T18:23:54.476Z,36.43
2023-07-01T18:26:36.336Z,36.86
2023-07-01T18:29:27.998Z,37.25
2023-07-01T18:32:02.069Z,37.02
2023-07-01T18:34:47.895Z,37.35
2023-07-01T18:37:28.354Z,37.36
2023-07-01T18:40:00.815Z,37.12
2023-07-01T18:42:50.123Z,36.68
2023-07-01T18:45:27.680Z,37.14
2023-07-01T18:48:20.361Z,37.68
2023-07-01T18:51:01.897Z,37.61
2023-07-01T18:53:47.381Z,37.45
2023-07-01T18:56:22.827Z,37.19
2023-07-01T18:59:02.204Z,37.41
2023-07-01T19:01:41.487Z,37.80
2023-07-01T19:04:32.279Z,37.69
2023-07-01T19:07:05.046Z,37.48
2023-07-01T19:09:41.103Z,37.18
2023-07-01T19:12:21.465Z,37.22
2023-07-01T19:15:07.042Z,37.17
2023-07-01T19:17:45.012Z,36.74
2023-07-01T19:20:57.675Z,37.07
2023-07-01T19:23:46.502Z,37.11
2023-07-01T19:26:21.875Z,36.70
2023-07-01T19:29:07.251Z,36.66
2023-07-01T19:31:52.131Z,36.36
2023-07-01T19:34:36.535Z,36.66
2023-07-01T19:37:22.173Z,36.59
2023-07-01T19:40:04.604Z,35.98
2023-07-01T19:42:49.459Z,36.49
2023-07-01T19:45:25.202Z,36.96
2023-07-01T19:48:07.300Z,36.72
2023-07-01T19:50:50.759Z,36.84
2023-07-01T19:53:33.104Z,36.03
2023-07-01T19:56:19.971Z,36.12
2023-07-01T19:59:03.374Z,36.45
2023-07-01T20:01:46.080Z,36.36
2023-07-01T20:04:30.856Z,35.30
2023-07-01T20:07:19.948Z,35.49
2023-07-01T20:10:12.461Z,35.41
2023-07-01T20:12:58.773Z,35.34
2023-07-01T20:15:44.020Z,34.46
2023-07-01T20:18:22.364Z,34.49
2023-07-01T20:21:03.197Z,34.40
2023-07-01T20:23:43.589Z,34.75
2023-07-01T20:26:30.074Z,34.58
2023-07-01T20:29:15.375Z,34.53
2023-07-01T20:32:10.771Z,35.75
2023-07-01T20:34:58.599Z,35.58
2023-07-01T20:37:39.640Z,35.41
2023-07-01T20:40:24.002Z,35.14
2023-07-01T20:43:44.478Z,35.06
2023-07-01T20:46:28.962Z,34.97
2023-07-01T20:52:05.921Z,35.05
2023-07-01T20:54:40.999Z,35.13
2023-07-01T20:57:29.898Z,34.69
2023-07-01T21:00:13.707Z,34.96
2023-07-01T21:02:51.686Z,34.13
2023-07-01T21:05:38.881Z,33.54
2023-07-01T21:08:23.889Z,33.57
2023-07-01T21:11:12.726Z,33.26
2023-07-01T21:14:01.272Z,33.13
2023-07-01T21:16:51.879Z,33.51
2023-07-01T21:19:46.532Z,33.28
2023-07-01T21:25:39.980Z,33.10
2023-07-01T21:28:16.418Z,33.24
2023-07-01T21:31:05.750Z,33.31
2023-07-01T21:33:41.423Z,32.98
2023-07-01T21:36:22.766Z,32.70
2023-07-01T21:39:10.390Z,32.57
2023-07-01T21:42:04.232Z,32.79
2023-07-01T21:45:02.584Z,32.87
2023-07-01T21:51:17.239Z,33.04
2023-07-01T21:54:02.851Z,32.91
2023-07-01T21:56:52.595Z,32.82
2023-07-01T21:59:33.933Z,32.59
2023-07-01T22:02:31.121Z,32.76
2023-07-01T22:05:18.278Z,32.80
2023-07-01T22:07:59.257Z,32.78
2023-07-01T22:10:56.991Z,32.49
2023-07-01T22:13:41.085Z,32.50
2023-07-01T22:16:24.222Z,32.53
2023-07-01T22:19:02.137Z,32.38
2023-07-01T22:21:48.684Z,32.43
2023-07-01T22:24:35.038Z,32.07
2023-07-01T22:27:18.674Z,32.37
2023-07-01T22:30:04.194Z,32.23
2023-07-01T22:32:48.237Z,32.11
2023-07-01T22:35:29.109Z,32.03
2023-07-01T22:38:08.162Z,32.19
2023-07-01T22:41:00.869Z,32.10
2023-07-01T22:43:48.260Z,31.92
2023-07-01T22:46:35.999Z,31.98
2023-07-01T22:49:16.850Z,31.78
2023-07-01T22:51:59.017Z,31.85
2023-07-01T22:54:54.642Z,31.82
2023-07-01T22:57:40.403Z,31.66
2023-07-01T23:00:28.863Z,31.79
2023-07-01T23:03:15.980Z,31.99
2023-07-01T23:06:01.581Z,31.91
2023-07-01T23:08:44.510Z,31.47
2023-07-01T23:11:23.161Z,31.53
2023-07-01T23:14:10.200Z,31.05
2023-07-01T23:16:54.735Z,30.98
2023-07-01T23:19:41.088Z,31.09
2023-07-01T23:25:23.539Z,30.62
2023-07-01T23:28:11.289Z,30.36
2023-07-01T23:31:06.840Z,30.45
2023-07-01T23:33:44.956Z,30.57
2023-07-01T23:36:23.301Z,30.48
2023-07-01T23:42:07.182Z,30.17
2023-07-01T23:44:52.268Z,30.16
2023-07-01T23:47:45.854Z,30.38
2023-07-01T23:50:31.193Z,30.36
2023-07-01T23:53:12.075Z,30.17
2023-07-01T23:55:56.865Z,30.35
2023-07-01T23:58:40.765Z,30.40
